sensor_id;sensor_type;location;lat;lon;timestamp;P1;durP1;ratioP1;P2;durP2;ratioP2
52057;SDS011;38063;53.210;6.504;2023-03-23T00:01:23;9.50;;;5.00;;
52057;SDS011;38063;53.210;6.504;2023-03-23T00:03:52;10.32;;;5.75;;
52057;SDS011;38063;53.210;6.504;2023-03-23T00:06:22;10.95;;;7.15;;
52057;SDS011;38063;53.210;6.504;2023-03-23T00:08:50;11.95;;;8.65;;
52057;SDS011;38063;53.210;6.504;2023-03-23T00:11:22;16.98;;;8.50;;
52057;SDS011;38063;53.210;6.504;2023-03-23T00:13:51;14.02;;;9.57;;
52057;SDS011;38063;53.210;6.504;2023-03-23T00:16:21;16.08;;;9.50;;
52057;SDS011;38063;53.210;6.504;2023-03-23T00:18:57;9.02;;;6.05;;
52057;SDS011;38063;53.210;6.504;2023-03-23T00:21:33;10.10;;;6.40;;
52057;SDS011;38063;53.210;6.504;2023-03-23T00:24:05;9.13;;;5.22;;
52057;SDS011;38063;53.210;6.504;2023-03-23T00:26:33;8.07;;;5.15;;
52057;SDS011;38063;53.210;6.504;2023-03-23T00:29:06;7.68;;;5.88;;
52057;SDS011;38063;53.210;6.504;2023-03-23T00:31:51;10.10;;;6.38;;
52057;SDS011;38063;53.210;6.504;2023-03-23T00:34:18;10.45;;;6.05;;
52057;SDS011;38063;53.210;6.504;2023-03-23T00:36:46;10.15;;;6.85;;
52057;SDS011;38063;53.210;6.504;2023-03-23T00:41:49;10.65;;;7.75;;
52057;SDS011;38063;53.210;6.504;2023-03-23T00:44:15;13.98;;;8.60;;
52057;SDS011;38063;53.210;6.504;2023-03-23T00:46:47;15.50;;;10.75;;
52057;SDS011;38063;53.210;6.504;2023-03-23T00:49:15;16.58;;;10.90;;
52057;SDS011;38063;53.210;6.504;2023-03-23T00:51:42;18.38;;;12.25;;
52057;SDS011;38063;53.210;6.504;2023-03-23T00:54:09;22.02;;;13.85;;
52057;SDS011;38063;53.210;6.504;2023-03-23T00:56:35;25.52;;;16.05;;
52057;SDS011;38063;53.210;6.504;2023-03-23T00:59:01;23.90;;;15.32;;
52057;SDS011;38063;53.210;6.504;2023-03-23T01:01:27;28.63;;;15.90;;
52057;SDS011;38063;53.210;6.504;2023-03-23T01:03:53;22.65;;;14.55;;
52057;SDS011;38063;53.210;6.504;2023-03-23T01:06:25;20.05;;;11.05;;
52057;SDS011;38063;53.210;6.504;2023-03-23T01:08:55;9.80;;;6.70;;
52057;SDS011;38063;53.210;6.504;2023-03-23T01:11:22;7.35;;;5.20;;
52057;SDS011;38063;53.210;6.504;2023-03-23T01:13:48;5.60;;;4.32;;
52057;SDS011;38063;53.210;6.504;2023-03-23T01:16:14;7.88;;;4.03;;
52057;SDS011;38063;53.210;6.504;2023-03-23T01:18:40;6.55;;;4.50;;
52057;SDS011;38063;53.210;6.504;2023-03-23T01:21:09;5.68;;;4.00;;
52057;SDS011;38063;53.210;6.504;2023-03-23T01:23:37;7.47;;;3.30;;
52057;SDS011;38063;53.210;6.504;2023-03-23T01:26:07;5.45;;;3.00;;
52057;SDS011;38063;53.210;6.504;2023-03-23T01:28:35;4.28;;;2.65;;
52057;SDS011;38063;53.210;6.504;2023-03-23T01:31:08;7.32;;;3.03;;
52057;SDS011;38063;53.210;6.504;2023-03-23T01:33:37;6.78;;;4.10;;
52057;SDS011;38063;53.210;6.504;2023-03-23T01:36:11;8.38;;;4.95;;
52057;SDS011;38063;53.210;6.504;2023-03-23T01:38:38;9.90;;;6.32;;
52057;SDS011;38063;53.210;6.504;2023-03-23T01:41:04;11.93;;;7.18;;
52057;SDS011;38063;53.210;6.504;2023-03-23T01:43:30;15.77;;;8.10;;
52057;SDS011;38063;53.210;6.504;2023-03-23T01:45:56;15.88;;;9.18;;
52057;SDS011;38063;53.210;6.504;2023-03-23T01:48:32;17.67;;;9.05;;
52057;SDS011;38063;53.210;6.504;2023-03-23T01:53:34;15.75;;;8.93;;
52057;SDS011;38063;53.210;6.504;2023-03-23T01:56:03;13.45;;;8.85;;
52057;SDS011;38063;53.210;6.504;2023-03-23T01:58:32;15.88;;;9.02;;
52057;SDS011;38063;53.210;6.504;2023-03-23T02:01:01;15.88;;;8.60;;
52057;SDS011;38063;53.210;6.504;2023-03-23T02:03:29;13.20;;;8.50;;
52057;SDS011;38063;53.210;6.504;2023-03-23T02:05:57;14.27;;;8.13;;
52057;SDS011;38063;53.210;6.504;2023-03-23T02:08:28;12.27;;;8.10;;
52057;SDS011;38063;53.210;6.504;2023-03-23T02:10:55;12.70;;;7.80;;
52057;SDS011;38063;53.210;6.504;2023-03-23T02:13:21;15.32;;;7.53;;
52057;SDS011;38063;53.210;6.504;2023-03-23T02:35:40;11.75;;;6.60;;
52057;SDS011;38063;53.210;6.504;2023-03-23T02:38:13;9.65;;;6.60;;
52057;SDS011;38063;53.210;6.504;2023-03-23T02:40:42;9.48;;;6.57;;
52057;SDS011;38063;53.210;6.504;2023-03-23T02:43:15;12.60;;;6.22;;
52057;SDS011;38063;53.210;6.504;2023-03-23T02:45:45;12.23;;;6.40;;
52057;SDS011;38063;53.210;6.504;2023-03-23T02:48:11;11.98;;;6.00;;
52057;SDS011;38063;53.210;6.504;2023-03-23T02:50:42;11.27;;;6.30;;
52057;SDS011;38063;53.210;6.504;2023-03-23T02:53:11;13.57;;;6.07;;
52057;SDS011;38063;53.210;6.504;2023-03-23T02:55:39;11.60;;;5.53;;
52057;SDS011;38063;53.210;6.504;2023-03-23T02:58:10;11.40;;;5.80;;
52057;SDS011;38063;53.210;6.504;2023-03-23T03:00:37;12.70;;;6.00;;
52057;SDS011;38063;53.210;6.504;2023-03-23T03:03:04;12.90;;;5.88;;
52057;SDS011;38063;53.210;6.504;2023-03-23T03:11:16;8.67;;;5.57;;
52057;SDS011;38063;53.210;6.504;2023-03-23T03:19:32;11.52;;;5.07;;
52057;SDS011;38063;53.210;6.504;2023-03-23T03:22:05;9.13;;;4.35;;
52057;SDS011;38063;53.210;6.504;2023-03-23T03:24:32;11.10;;;4.80;;
52057;SDS011;38063;53.210;6.504;2023-03-23T03:27:00;8.57;;;4.70;;
52057;SDS011;38063;53.210;6.504;2023-03-23T03:29:29;7.75;;;4.57;;
52057;SDS011;38063;53.210;6.504;2023-03-23T03:31:59;8.20;;;4.72;;
52057;SDS011;38063;53.210;6.504;2023-03-23T03:34:27;10.15;;;4.65;;
52057;SDS011;38063;53.210;6.504;2023-03-23T03:36:54;10.32;;;5.03;;
52057;SDS011;38063;53.210;6.504;2023-03-23T03:39:23;11.35;;;4.82;;
52057;SDS011;38063;53.210;6.504;2023-03-23T03:41:49;7.78;;;4.47;;
52057;SDS011;38063;53.210;6.504;2023-03-23T03:44:15;8.70;;;4.50;;
52057;SDS011;38063;53.210;6.504;2023-03-23T03:46:40;10.23;;;4.40;;
52057;SDS011;38063;53.210;6.504;2023-03-23T03:49:07;8.27;;;4.55;;
52057;SDS011;38063;53.210;6.504;2023-03-23T03:51:35;8.60;;;4.55;;
52057;SDS011;38063;53.210;6.504;2023-03-23T03:54:01;7.78;;;4.80;;
52057;SDS011;38063;53.210;6.504;2023-03-23T03:56:27;11.38;;;4.88;;
52057;SDS011;38063;53.210;6.504;2023-03-23T03:58:53;10.43;;;4.68;;
52057;SDS011;38063;53.210;6.504;2023-03-23T04:01:19;7.72;;;3.15;;
52057;SDS011;38063;53.210;6.504;2023-03-23T04:03:47;9.05;;;3.92;;
52057;SDS011;38063;53.210;6.504;2023-03-23T04:06:14;9.52;;;3.65;;
52057;SDS011;38063;53.210;6.504;2023-03-23T04:08:40;10.68;;;4.30;;
52057;SDS011;38063;53.210;6.504;2023-03-23T04:11:07;8.95;;;3.30;;
52057;SDS011;38063;53.210;6.504;2023-03-23T04:13:35;8.48;;;3.55;;
52057;SDS011;38063;53.210;6.504;2023-03-23T04:16:01;5.00;;;2.08;;
52057;SDS011;38063;53.210;6.504;2023-03-23T04:18:27;4.32;;;2.83;;
52057;SDS011;38063;53.210;6.504;2023-03-23T04:20:53;2.53;;;1.52;;
52057;SDS011;38063;53.210;6.504;2023-03-23T04:23:24;5.75;;;1.70;;
52057;SDS011;38063;53.210;6.504;2023-03-23T04:25:51;4.63;;;1.73;;
52057;SDS011;38063;53.210;6.504;2023-03-23T04:28:22;4.70;;;2.20;;
52057;SDS011;38063;53.210;6.504;2023-03-23T04:30:48;5.82;;;2.63;;
52057;SDS011;38063;53.210;6.504;2023-03-23T04:33:18;8.23;;;2.63;;
52057;SDS011;38063;53.210;6.504;2023-03-23T04:35:44;11.88;;;3.42;;
52057;SDS011;38063;53.210;6.504;2023-03-23T04:38:13;5.53;;;2.40;;
52057;SDS011;38063;53.210;6.504;2023-03-23T04:40:41;6.25;;;1.98;;
52057;SDS011;38063;53.210;6.504;2023-03-23T04:43:08;5.07;;;2.25;;
52057;SDS011;38063;53.210;6.504;2023-03-23T04:45:36;7.13;;;2.20;;
52057;SDS011;38063;53.210;6.504;2023-03-23T04:48:06;8.95;;;2.90;;
52057;SDS011;38063;53.210;6.504;2023-03-23T04:50:33;6.90;;;2.80;;
52057;SDS011;38063;53.210;6.504;2023-03-23T04:53:00;7.47;;;2.17;;
52057;SDS011;38063;53.210;6.504;2023-03-23T04:55:32;8.95;;;2.17;;
52057;SDS011;38063;53.210;6.504;2023-03-23T04:58:01;7.35;;;1.80;;
52057;SDS011;38063;53.210;6.504;2023-03-23T05:00:31;5.60;;;1.83;;
52057;SDS011;38063;53.210;6.504;2023-03-23T05:03:00;7.57;;;2.03;;
52057;SDS011;38063;53.210;6.504;2023-03-23T05:05:27;9.40;;;2.50;;
52057;SDS011;38063;53.210;6.504;2023-03-23T05:07:55;6.72;;;2.03;;
52057;SDS011;38063;53.210;6.504;2023-03-23T05:10:21;8.88;;;2.13;;
52057;SDS011;38063;53.210;6.504;2023-03-23T05:12:47;8.57;;;2.60;;
52057;SDS011;38063;53.210;6.504;2023-03-23T05:15:14;13.40;;;2.83;;
52057;SDS011;38063;53.210;6.504;2023-03-23T05:17:41;13.52;;;3.47;;
52057;SDS011;38063;53.210;6.504;2023-03-23T05:20:18;11.18;;;3.17;;
52057;SDS011;38063;53.210;6.504;2023-03-23T05:22:45;9.02;;;3.50;;
52057;SDS011;38063;53.210;6.504;2023-03-23T05:25:14;16.23;;;3.42;;
52057;SDS011;38063;53.210;6.504;2023-03-23T05:27:44;7.03;;;3.33;;
52057;SDS011;38063;53.210;6.504;2023-03-23T05:30:14;11.07;;;3.95;;
52057;SDS011;38063;53.210;6.504;2023-03-23T05:32:41;16.05;;;3.97;;
52057;SDS011;38063;53.210;6.504;2023-03-23T05:35:10;15.40;;;3.88;;
52057;SDS011;38063;53.210;6.504;2023-03-23T05:37:36;14.88;;;3.70;;
52057;SDS011;38063;53.210;6.504;2023-03-23T05:40:02;15.23;;;4.15;;
52057;SDS011;38063;53.210;6.504;2023-03-23T05:42:32;13.43;;;3.40;;
52057;SDS011;38063;53.210;6.504;2023-03-23T05:44:59;13.75;;;2.88;;
52057;SDS011;38063;53.210;6.504;2023-03-23T05:47:29;15.70;;;2.85;;
52057;SDS011;38063;53.210;6.504;2023-03-23T05:49:55;13.65;;;3.65;;
52057;SDS011;38063;53.210;6.504;2023-03-23T05:52:21;22.13;;;3.75;;
52057;SDS011;38063;53.210;6.504;2023-03-23T05:54:49;15.82;;;3.63;;
52057;SDS011;38063;53.210;6.504;2023-03-23T05:57:15;19.95;;;2.80;;
52057;SDS011;38063;53.210;6.504;2023-03-23T05:59:41;15.68;;;3.22;;
52057;SDS011;38063;53.210;6.504;2023-03-23T06:02:08;15.63;;;3.47;;
52057;SDS011;38063;53.210;6.504;2023-03-23T06:04:35;14.20;;;2.90;;
52057;SDS011;38063;53.210;6.504;2023-03-23T06:07:03;21.08;;;3.22;;
52057;SDS011;38063;53.210;6.504;2023-03-23T06:09:28;17.50;;;3.35;;
52057;SDS011;38063;53.210;6.504;2023-03-23T06:11:54;18.73;;;3.58;;
52057;SDS011;38063;53.210;6.504;2023-03-23T06:14:20;9.68;;;2.92;;
52057;SDS011;38063;53.210;6.504;2023-03-23T06:16:46;17.42;;;3.17;;
52057;SDS011;38063;53.210;6.504;2023-03-23T06:19:12;23.33;;;3.72;;
52057;SDS011;38063;53.210;6.504;2023-03-23T06:21:37;22.17;;;3.30;;
52057;SDS011;38063;53.210;6.504;2023-03-23T06:24:03;19.48;;;3.65;;
52057;SDS011;38063;53.210;6.504;2023-03-23T06:26:36;13.82;;;3.15;;
52057;SDS011;38063;53.210;6.504;2023-03-23T06:31:36;19.50;;;3.55;;
52057;SDS011;38063;53.210;6.504;2023-03-23T06:34:07;15.20;;;3.58;;
52057;SDS011;38063;53.210;6.504;2023-03-23T06:36:35;16.38;;;3.03;;
52057;SDS011;38063;53.210;6.504;2023-03-23T06:39:01;13.32;;;2.40;;
52057;SDS011;38063;53.210;6.504;2023-03-23T06:41:29;12.27;;;2.90;;
52057;SDS011;38063;53.210;6.504;2023-03-23T06:43:56;14.98;;;2.83;;
52057;SDS011;38063;53.210;6.504;2023-03-23T06:46:22;15.38;;;2.85;;
52057;SDS011;38063;53.210;6.504;2023-03-23T06:48:48;19.30;;;3.15;;
52057;SDS011;38063;53.210;6.504;2023-03-23T06:51:15;8.40;;;2.45;;
52057;SDS011;38063;53.210;6.504;2023-03-23T06:53:42;11.35;;;1.98;;
52057;SDS011;38063;53.210;6.504;2023-03-23T06:56:08;14.73;;;2.47;;
52057;SDS011;38063;53.210;6.504;2023-03-23T06:58:34;8.95;;;1.70;;
52057;SDS011;38063;53.210;6.504;2023-03-23T07:01:00;10.55;;;2.40;;
52057;SDS011;38063;53.210;6.504;2023-03-23T07:03:26;10.00;;;1.73;;
52057;SDS011;38063;53.210;6.504;2023-03-23T07:05:53;7.53;;;2.00;;
52057;SDS011;38063;53.210;6.504;2023-03-23T07:08:19;11.48;;;2.53;;
52057;SDS011;38063;53.210;6.504;2023-03-23T07:10:46;9.70;;;2.00;;
52057;SDS011;38063;53.210;6.504;2023-03-23T07:13:12;14.98;;;2.40;;
52057;SDS011;38063;53.210;6.504;2023-03-23T07:15:38;10.48;;;2.50;;
52057;SDS011;38063;53.210;6.504;2023-03-23T07:18:04;14.02;;;3.42;;
52057;SDS011;38063;53.210;6.504;2023-03-23T07:20:30;17.38;;;2.65;;
52057;SDS011;38063;53.210;6.504;2023-03-23T07:22:56;14.15;;;2.67;;
52057;SDS011;38063;53.210;6.504;2023-03-23T07:25:22;18.27;;;3.15;;
52057;SDS011;38063;53.210;6.504;2023-03-23T07:27:47;15.05;;;3.10;;
52057;SDS011;38063;53.210;6.504;2023-03-23T07:30:13;15.93;;;3.22;;
52057;SDS011;38063;53.210;6.504;2023-03-23T07:32:40;23.48;;;4.50;;
52057;SDS011;38063;53.210;6.504;2023-03-23T07:35:06;27.55;;;3.80;;
52057;SDS011;38063;53.210;6.504;2023-03-23T07:37:34;21.60;;;4.90;;
52057;SDS011;38063;53.210;6.504;2023-03-23T07:40:00;18.33;;;3.45;;
52057;SDS011;38063;53.210;6.504;2023-03-23T07:42:39;24.73;;;4.00;;
52057;SDS011;38063;53.210;6.504;2023-03-23T07:45:06;19.92;;;4.30;;
52057;SDS011;38063;53.210;6.504;2023-03-23T07:47:32;24.77;;;5.05;;
52057;SDS011;38063;53.210;6.504;2023-03-23T07:49:58;19.20;;;4.63;;
52057;SDS011;38063;53.210;6.504;2023-03-23T07:52:23;20.48;;;4.10;;
52057;SDS011;38063;53.210;6.504;2023-03-23T07:54:49;23.40;;;3.65;;
52057;SDS011;38063;53.210;6.504;2023-03-23T07:57:15;24.33;;;4.43;;
52057;SDS011;38063;53.210;6.504;2023-03-23T07:59:40;18.20;;;3.95;;
52057;SDS011;38063;53.210;6.504;2023-03-23T08:02:07;21.73;;;4.53;;
52057;SDS011;38063;53.210;6.504;2023-03-23T08:04:35;30.65;;;4.70;;
52057;SDS011;38063;53.210;6.504;2023-03-23T08:07:02;33.08;;;5.75;;
52057;SDS011;38063;53.210;6.504;2023-03-23T08:09:29;28.45;;;4.25;;
52057;SDS011;38063;53.210;6.504;2023-03-23T08:11:55;23.75;;;3.70;;
52057;SDS011;38063;53.210;6.504;2023-03-23T08:14:21;21.17;;;3.63;;
52057;SDS011;38063;53.210;6.504;2023-03-23T08:16:48;23.70;;;3.95;;
52057;SDS011;38063;53.210;6.504;2023-03-23T08:19:13;21.42;;;4.32;;
52057;SDS011;38063;53.210;6.504;2023-03-23T08:21:39;32.10;;;4.55;;
52057;SDS011;38063;53.210;6.504;2023-03-23T08:24:05;25.52;;;4.35;;
52057;SDS011;38063;53.210;6.504;2023-03-23T08:26:31;26.92;;;5.55;;
52057;SDS011;38063;53.210;6.504;2023-03-23T08:28:57;27.75;;;4.35;;
52057;SDS011;38063;53.210;6.504;2023-03-23T08:31:23;26.75;;;4.88;;
52057;SDS011;38063;53.210;6.504;2023-03-23T08:33:49;27.63;;;4.45;;
52057;SDS011;38063;53.210;6.504;2023-03-23T08:36:15;28.52;;;5.10;;
52057;SDS011;38063;53.210;6.504;2023-03-23T08:38:41;21.13;;;4.30;;
52057;SDS011;38063;53.210;6.504;2023-03-23T08:41:08;24.58;;;4.00;;
52057;SDS011;38063;53.210;6.504;2023-03-23T08:43:34;26.67;;;4.20;;
52057;SDS011;38063;53.210;6.504;2023-03-23T08:46:00;29.52;;;5.25;;
52057;SDS011;38063;53.210;6.504;2023-03-23T08:48:32;26.95;;;4.85;;
52057;SDS011;38063;53.210;6.504;2023-03-23T08:50:58;22.23;;;4.53;;
52057;SDS011;38063;53.210;6.504;2023-03-23T08:53:26;26.95;;;4.90;;
52057;SDS011;38063;53.210;6.504;2023-03-23T08:55:55;25.42;;;4.88;;
52057;SDS011;38063;53.210;6.504;2023-03-23T08:58:21;21.88;;;4.13;;
52057;SDS011;38063;53.210;6.504;2023-03-23T09:00:47;26.95;;;3.97;;
52057;SDS011;38063;53.210;6.504;2023-03-23T09:03:13;28.42;;;4.55;;
52057;SDS011;38063;53.210;6.504;2023-03-23T09:05:40;33.00;;;5.25;;
52057;SDS011;38063;53.210;6.504;2023-03-23T09:08:10;23.38;;;4.25;;
52057;SDS011;38063;53.210;6.504;2023-03-23T09:10:37;24.98;;;4.65;;
52057;SDS011;38063;53.210;6.504;2023-03-23T09:13:04;32.28;;;4.95;;
52057;SDS011;38063;53.210;6.504;2023-03-23T09:15:31;24.70;;;4.20;;
52057;SDS011;38063;53.210;6.504;2023-03-23T09:17:57;31.77;;;4.72;;
52057;SDS011;38063;53.210;6.504;2023-03-23T09:20:24;27.42;;;4.40;;
52057;SDS011;38063;53.210;6.504;2023-03-23T09:22:53;28.70;;;4.43;;
52057;SDS011;38063;53.210;6.504;2023-03-23T09:25:20;25.42;;;4.43;;
52057;SDS011;38063;53.210;6.504;2023-03-23T09:27:51;23.35;;;4.32;;
52057;SDS011;38063;53.210;6.504;2023-03-23T09:30:21;26.75;;;4.68;;
52057;SDS011;38063;53.210;6.504;2023-03-23T09:32:51;16.85;;;3.88;;
52057;SDS011;38063;53.210;6.504;2023-03-23T09:35:18;25.80;;;4.38;;
52057;SDS011;38063;53.210;6.504;2023-03-23T09:37:46;23.58;;;3.92;;
52057;SDS011;38063;53.210;6.504;2023-03-23T09:40:14;18.63;;;3.63;;
52057;SDS011;38063;53.210;6.504;2023-03-23T09:43:00;19.88;;;4.63;;
52057;SDS011;38063;53.210;6.504;2023-03-23T09:45:33;21.63;;;3.65;;
52057;SDS011;38063;53.210;6.504;2023-03-23T09:48:16;29.98;;;4.78;;
52057;SDS011;38063;53.210;6.504;2023-03-23T09:53:52;24.67;;;3.92;;
52057;SDS011;38063;53.210;6.504;2023-03-23T09:56:20;23.08;;;3.53;;
52057;SDS011;38063;53.210;6.504;2023-03-23T09:59:01;24.95;;;4.25;;
52057;SDS011;38063;53.210;6.504;2023-03-23T10:02:14;23.40;;;3.88;;
52057;SDS011;38063;53.210;6.504;2023-03-23T10:04:48;22.23;;;3.92;;
52057;SDS011;38063;53.210;6.504;2023-03-23T10:07:18;19.15;;;3.88;;
52057;SDS011;38063;53.210;6.504;2023-03-23T10:09:52;26.15;;;4.05;;
52057;SDS011;38063;53.210;6.504;2023-03-23T10:15:20;20.15;;;3.45;;
52057;SDS011;38063;53.210;6.504;2023-03-23T10:26:00;16.83;;;3.80;;
52057;SDS011;38063;53.210;6.504;2023-03-23T10:28:37;16.20;;;3.17;;
52057;SDS011;38063;53.210;6.504;2023-03-23T10:31:08;21.83;;;4.03;;
52057;SDS011;38063;53.210;6.504;2023-03-23T10:33:42;17.95;;;3.20;;
52057;SDS011;38063;53.210;6.504;2023-03-23T10:41:36;16.48;;;3.70;;
52057;SDS011;38063;53.210;6.504;2023-03-23T10:44:19;21.30;;;3.85;;
52057;SDS011;38063;53.210;6.504;2023-03-23T10:46:51;17.58;;;3.85;;
52057;SDS011;38063;53.210;6.504;2023-03-23T10:49:26;18.35;;;4.07;;
52057;SDS011;38063;53.210;6.504;2023-03-23T10:52:05;20.42;;;3.78;;
52057;SDS011;38063;53.210;6.504;2023-03-23T10:54:39;21.45;;;4.53;;
52057;SDS011;38063;53.210;6.504;2023-03-23T10:57:22;26.80;;;4.18;;
52057;SDS011;38063;53.210;6.504;2023-03-23T11:00:00;22.60;;;4.10;;
52057;SDS011;38063;53.210;6.504;2023-03-23T11:02:36;24.27;;;3.70;;
52057;SDS011;38063;53.210;6.504;2023-03-23T11:05:09;19.42;;;3.53;;
52057;SDS011;38063;53.210;6.504;2023-03-23T11:07:48;20.10;;;5.50;;
52057;SDS011;38063;53.210;6.504;2023-03-23T11:10:20;24.80;;;4.45;;
52057;SDS011;38063;53.210;6.504;2023-03-23T11:12:51;18.45;;;3.65;;
52057;SDS011;38063;53.210;6.504;2023-03-23T11:15:28;18.83;;;3.67;;
52057;SDS011;38063;53.210;6.504;2023-03-23T11:18:02;20.30;;;4.43;;
52057;SDS011;38063;53.210;6.504;2023-03-23T11:20:34;23.33;;;4.05;;
52057;SDS011;38063;53.210;6.504;2023-03-23T11:23:13;21.70;;;3.47;;
52057;SDS011;38063;53.210;6.504;2023-03-23T11:28:19;17.13;;;3.92;;
52057;SDS011;38063;53.210;6.504;2023-03-23T11:30:44;12.77;;;2.75;;
52057;SDS011;38063;53.210;6.504;2023-03-23T11:33:11;14.50;;;2.90;;
52057;SDS011;38063;53.210;6.504;2023-03-23T11:35:42;16.33;;;3.00;;
52057;SDS011;38063;53.210;6.504;2023-03-23T11:38:17;15.60;;;3.33;;
52057;SDS011;38063;53.210;6.504;2023-03-23T11:40:49;13.02;;;3.38;;
52057;SDS011;38063;53.210;6.504;2023-03-23T11:43:20;17.10;;;3.20;;
52057;SDS011;38063;53.210;6.504;2023-03-23T11:48:35;13.45;;;3.20;;
52057;SDS011;38063;53.210;6.504;2023-03-23T11:51:12;12.63;;;2.67;;
52057;SDS011;38063;53.210;6.504;2023-03-23T11:53:57;19.73;;;3.25;;
52057;SDS011;38063;53.210;6.504;2023-03-23T11:56:35;13.80;;;2.47;;
52057;SDS011;38063;53.210;6.504;2023-03-23T11:59:05;10.88;;;2.20;;
52057;SDS011;38063;53.210;6.504;2023-03-23T12:04:56;16.20;;;3.15;;
52057;SDS011;38063;53.210;6.504;2023-03-23T12:07:35;19.27;;;3.10;;
52057;SDS011;38063;53.210;6.504;2023-03-23T12:16:08;14.02;;;2.40;;
52057;SDS011;38063;53.210;6.504;2023-03-23T12:18:52;12.63;;;2.67;;
52057;SDS011;38063;53.210;6.504;2023-03-23T12:27:19;12.75;;;2.75;;
52057;SDS011;38063;53.210;6.504;2023-03-23T12:32:46;10.20;;;2.10;;
52057;SDS011;38063;53.210;6.504;2023-03-23T12:40:43;14.25;;;2.70;;
52057;SDS011;38063;53.210;6.504;2023-03-23T12:48:48;13.25;;;2.67;;
52057;SDS011;38063;53.210;6.504;2023-03-23T12:51:31;10.85;;;2.22;;
52057;SDS011;38063;53.210;6.504;2023-03-23T12:54:09;11.45;;;2.25;;
52057;SDS011;38063;53.210;6.504;2023-03-23T12:56:48;13.43;;;2.40;;
52057;SDS011;38063;53.210;6.504;2023-03-23T13:05:00;12.65;;;2.50;;
52057;SDS011;38063;53.210;6.504;2023-03-23T13:07:46;12.98;;;2.47;;
52057;SDS011;38063;53.210;6.504;2023-03-23T13:10:23;18.02;;;3.05;;
52057;SDS011;38063;53.210;6.504;2023-03-23T13:12:53;15.18;;;2.80;;
52057;SDS011;38063;53.210;6.504;2023-03-23T13:18:12;12.52;;;2.75;;
52057;SDS011;38063;53.210;6.504;2023-03-23T13:20:45;14.68;;;2.90;;
52057;SDS011;38063;53.210;6.504;2023-03-23T13:23:47;16.27;;;2.70;;
52057;SDS011;38063;53.210;6.504;2023-03-23T13:26:18;17.95;;;3.00;;
52057;SDS011;38063;53.210;6.504;2023-03-23T13:31:21;17.40;;;2.60;;
52057;SDS011;38063;53.210;6.504;2023-03-23T13:33:51;17.05;;;3.30;;
52057;SDS011;38063;53.210;6.504;2023-03-23T13:36:24;17.48;;;3.47;;
52057;SDS011;38063;53.210;6.504;2023-03-23T13:39:21;17.95;;;3.22;;
52057;SDS011;38063;53.210;6.504;2023-03-23T13:50:02;13.80;;;2.90;;
52057;SDS011;38063;53.210;6.504;2023-03-23T13:52:45;15.32;;;3.40;;
52057;SDS011;38063;53.210;6.504;2023-03-23T14:13:43;17.85;;;3.25;;
52057;SDS011;38063;53.210;6.504;2023-03-23T14:16:15;11.52;;;2.88;;
52057;SDS011;38063;53.210;6.504;2023-03-23T14:18:42;19.35;;;3.13;;
52057;SDS011;38063;53.210;6.504;2023-03-23T14:21:22;16.92;;;3.08;;
52057;SDS011;38063;53.210;6.504;2023-03-23T14:23:59;12.35;;;2.70;;
52057;SDS011;38063;53.210;6.504;2023-03-23T14:26:26;15.00;;;3.28;;
52057;SDS011;38063;53.210;6.504;2023-03-23T14:28:52;15.93;;;2.65;;
52057;SDS011;38063;53.210;6.504;2023-03-23T14:31:20;18.88;;;3.25;;
52057;SDS011;38063;53.210;6.504;2023-03-23T14:33:52;17.58;;;3.10;;
52057;SDS011;38063;53.210;6.504;2023-03-23T14:36:23;15.80;;;3.25;;
52057;SDS011;38063;53.210;6.504;2023-03-23T14:39:00;12.18;;;2.30;;
52057;SDS011;38063;53.210;6.504;2023-03-23T14:41:32;11.02;;;2.58;;
52057;SDS011;38063;53.210;6.504;2023-03-23T14:44:00;12.57;;;2.28;;
52057;SDS011;38063;53.210;6.504;2023-03-23T14:46:29;16.58;;;3.03;;
52057;SDS011;38063;53.210;6.504;2023-03-23T14:48:56;9.23;;;2.03;;
52057;SDS011;38063;53.210;6.504;2023-03-23T14:51:29;8.80;;;1.85;;
52057;SDS011;38063;53.210;6.504;2023-03-23T14:53:55;9.00;;;2.13;;
52057;SDS011;38063;53.210;6.504;2023-03-23T14:56:30;10.52;;;2.33;;
52057;SDS011;38063;53.210;6.504;2023-03-23T14:59:02;10.60;;;2.70;;
52057;SDS011;38063;53.210;6.504;2023-03-23T15:01:30;10.77;;;2.28;;
52057;SDS011;38063;53.210;6.504;2023-03-23T15:04:00;9.60;;;2.50;;
52057;SDS011;38063;53.210;6.504;2023-03-23T15:06:36;11.20;;;2.20;;
52057;SDS011;38063;53.210;6.504;2023-03-23T15:09:09;9.73;;;1.95;;
52057;SDS011;38063;53.210;6.504;2023-03-23T15:11:39;9.43;;;2.22;;
52057;SDS011;38063;53.210;6.504;2023-03-23T15:14:13;9.02;;;1.92;;
52057;SDS011;38063;53.210;6.504;2023-03-23T15:16:45;9.48;;;2.03;;
52057;SDS011;38063;53.210;6.504;2023-03-23T15:19:55;8.07;;;2.50;;
52057;SDS011;38063;53.210;6.504;2023-03-23T15:22:06;12.90;;;2.35;;
52057;SDS011;38063;53.210;6.504;2023-03-23T15:24:52;8.00;;;2.20;;
52057;SDS011;38063;53.210;6.504;2023-03-23T15:27:30;14.20;;;2.42;;
52057;SDS011;38063;53.210;6.504;2023-03-23T15:32:46;11.07;;;2.03;;
52057;SDS011;38063;53.210;6.504;2023-03-23T15:35:14;11.10;;;2.45;;
52057;SDS011;38063;53.210;6.504;2023-03-23T15:37:44;9.13;;;1.95;;
52057;SDS011;38063;53.210;6.504;2023-03-23T15:40:18;12.48;;;2.13;;
52057;SDS011;38063;53.210;6.504;2023-03-23T15:42:47;11.65;;;2.17;;
52057;SDS011;38063;53.210;6.504;2023-03-23T15:50:10;9.00;;;2.35;;
52057;SDS011;38063;53.210;6.504;2023-03-23T15:52:39;13.00;;;2.10;;
52057;SDS011;38063;53.210;6.504;2023-03-23T15:55:25;10.05;;;2.22;;
52057;SDS011;38063;53.210;6.504;2023-03-23T15:58:07;12.43;;;2.67;;
52057;SDS011;38063;53.210;6.504;2023-03-23T16:03:04;15.18;;;2.95;;
52057;SDS011;38063;53.210;6.504;2023-03-23T16:05:33;16.77;;;2.85;;
52057;SDS011;38063;53.210;6.504;2023-03-23T16:07:59;13.27;;;3.10;;
52057;SDS011;38063;53.210;6.504;2023-03-23T16:10:26;16.33;;;2.95;;
52057;SDS011;38063;53.210;6.504;2023-03-23T16:12:52;14.23;;;2.83;;
52057;SDS011;38063;53.210;6.504;2023-03-23T16:15:18;16.92;;;3.22;;
52057;SDS011;38063;53.210;6.504;2023-03-23T16:17:44;14.23;;;3.00;;
52057;SDS011;38063;53.210;6.504;2023-03-23T16:20:20;17.15;;;3.33;;
52057;SDS011;38063;53.210;6.504;2023-03-23T16:22:47;15.70;;;3.53;;
52057;SDS011;38063;53.210;6.504;2023-03-23T16:25:14;13.82;;;2.92;;
52057;SDS011;38063;53.210;6.504;2023-03-23T16:27:41;15.00;;;2.60;;
52057;SDS011;38063;53.210;6.504;2023-03-23T16:30:14;17.90;;;2.92;;
52057;SDS011;38063;53.210;6.504;2023-03-23T16:32:45;12.80;;;2.78;;
52057;SDS011;38063;53.210;6.504;2023-03-23T16:35:11;14.82;;;2.65;;
52057;SDS011;38063;53.210;6.504;2023-03-23T16:37:38;11.50;;;2.58;;
52057;SDS011;38063;53.210;6.504;2023-03-23T16:40:10;17.90;;;4.10;;
52057;SDS011;38063;53.210;6.504;2023-03-23T16:42:36;21.73;;;3.05;;
52057;SDS011;38063;53.210;6.504;2023-03-23T16:45:02;13.18;;;2.70;;
52057;SDS011;38063;53.210;6.504;2023-03-23T16:47:28;18.90;;;3.35;;
52057;SDS011;38063;53.210;6.504;2023-03-23T16:49:54;14.40;;;3.10;;
52057;SDS011;38063;53.210;6.504;2023-03-23T16:52:19;18.67;;;3.60;;
52057;SDS011;38063;53.210;6.504;2023-03-23T16:54:45;14.48;;;3.10;;
52057;SDS011;38063;53.210;6.504;2023-03-23T16:57:11;13.90;;;3.00;;
52057;SDS011;38063;53.210;6.504;2023-03-23T16:59:37;15.77;;;3.00;;
52057;SDS011;38063;53.210;6.504;2023-03-23T17:02:03;17.63;;;3.40;;
52057;SDS011;38063;53.210;6.504;2023-03-23T17:04:29;13.52;;;3.25;;
52057;SDS011;38063;53.210;6.504;2023-03-23T17:06:55;15.52;;;3.33;;
52057;SDS011;38063;53.210;6.504;2023-03-23T17:09:23;20.55;;;3.40;;
52057;SDS011;38063;53.210;6.504;2023-03-23T17:11:50;18.20;;;3.00;;